Impacts TAF Board INFO
IDs:

KSFO - San Francisco Intl, CA, US

Issued at 0900 UTC 04 Dec 2016
Updated at 1014 UTC 04 Dec 2016
Potential Impact None Slight Moderate High
Time0956Z 04/11Z 04/12Z 04/13Z 04/14Z 04/15Z 04/16Z 04/17Z 04/18Z 04/19Z 04/20Z 04/21Z 04/22Z 04/23Z
Type OBS PRVL PRVL PRVL PRVL PRVL PRVL PRVL PRVL PRVL PRVL PRVL PRVL PRVL
VIS 10 >6 >6 >6 >6 >6 >6 >6 >6 >6 >6 >6 >6 >6
CIG -- -- -- -- -- -- -- -- -- -- -- 200 200 200
Cover CLR FEW FEW FEW SCT SCT SCT SCT SCT SCT SCT BKN BKN BKN
FltCat VFR VFR VFR VFR VFR VFR VFR VFR VFR VFR VFR VFR VFR VFR
WX -- -- -- -- -- -- -- -- -- -- -- -- -- --
WDir 180 VRB VRB VRB 20 20 20 20 20 20 20 290 290 290
WSpd 3 3 3 3 4 4 4 4 4 4 4 9 9 9
WGst -- -- -- -- -- -- -- -- -- -- -- -- -- --

Raw TAF
KSFO 040900Z 0409/0512 VRB03KT P6SM FEW200
  FM041400 02004KT P6SM SCT200
  FM042100 29009KT P6SM BKN200
  FM050400 28012KT P6SM OVC030


Raw METAR
KSFO 040956Z 18003KT 10SM CLR 09/07 A3018 RMK AO2 SLP220 T00940067 $
KSFO 040856Z 18003KT 10SM CLR 09/07 A3018 RMK AO2 SLP220 T00940067 58002 $
KSFO 040756Z 00000KT 10SM CLR 10/06 A3019 RMK AO2 SLP223 T01000061 401670067 $

METAR Board
Radar Display
Forecast Discussion